createdAt,value
2022-09-05T00:00:27.607Z,16.13
2022-09-05T00:03:20.706Z,16.10
2022-09-05T00:06:06.278Z,16.08
2022-09-05T00:09:23.727Z,16.07
2022-09-05T00:12:02.859Z,16.07
2022-09-05T00:15:17.055Z,16.05
2022-09-05T00:22:33.181Z,16.03
2022-09-05T00:24:33.159Z,16.00
2022-09-05T00:24:34.359Z,15.99
2022-09-05T00:27:14.281Z,15.97
2022-09-05T00:31:07.326Z,15.97
2022-09-05T00:33:17.469Z,15.95
2022-09-05T00:36:11.602Z,15.95
2022-09-05T00:38:46.726Z,15.94
2022-09-05T00:41:18.957Z,15.91
2022-09-05T00:43:52.303Z,15.90
2022-09-05T00:46:32.081Z,15.86
2022-09-05T00:49:28.332Z,15.87
2022-09-05T00:52:11.631Z,15.87
2022-09-05T00:55:16.561Z,15.85
2022-09-05T00:58:22.826Z,15.84
2022-09-05T01:01:02.261Z,15.83
2022-09-05T01:03:44.488Z,15.80
2022-09-05T01:06:40.238Z,15.78
2022-09-05T01:09:36.776Z,15.75
2022-09-05T01:12:52.878Z,15.73
2022-09-05T01:15:33.688Z,15.71
2022-09-05T01:18:56.761Z,15.68
2022-09-05T01:22:07.467Z,15.67
2022-09-05T01:25:15.203Z,15.65
2022-09-05T01:29:16.895Z,15.63
2022-09-05T01:31:36.340Z,15.61
2022-09-05T01:34:44.014Z,15.60
2022-09-05T01:37:33.946Z,15.62
2022-09-05T01:40:31.823Z,15.63
2022-09-05T01:43:34.072Z,15.64
2022-09-05T01:46:47.427Z,15.64
2022-09-05T01:50:03.136Z,15.65
2022-09-05T01:53:00.169Z,15.66
2022-09-05T01:56:05.581Z,15.65
2022-09-05T01:59:10.123Z,15.65
2022-09-05T02:02:08.785Z,15.63
2022-09-05T02:05:09.843Z,15.62
2022-09-05T02:07:58.183Z,15.61
2022-09-05T02:11:06.026Z,15.60
2022-09-05T02:13:57.540Z,15.58
2022-09-05T02:16:44.054Z,15.58
2022-09-05T02:19:32.570Z,15.57
2022-09-05T02:22:13.540Z,15.55
2022-09-05T02:24:48.953Z,15.54
2022-09-05T02:28:04.331Z,15.53
2022-09-05T02:30:19.256Z,15.52
2022-09-05T02:33:09.733Z,15.53
2022-09-05T02:35:57.222Z,15.52
2022-09-05T02:44:13.860Z,15.50
2022-09-05T02:45:06.150Z,15.46
2022-09-05T02:45:10.436Z,15.49
2022-09-05T02:47:23.981Z,15.44
2022-09-05T02:54:40.219Z,15.43
2022-09-05T02:57:29.754Z,15.41
2022-09-05T02:57:41.139Z,15.41
2022-09-05T02:59:10.105Z,15.41
2022-09-05T03:02:25.227Z,15.34
2022-09-05T03:04:55.452Z,15.29
2022-09-05T03:08:13.575Z,15.25
2022-09-05T03:11:07.173Z,15.23
2022-09-05T03:14:10.894Z,15.16
2022-09-05T03:17:28.559Z,15.12
2022-09-05T03:20:40.493Z,15.08
2022-09-05T03:23:43.781Z,15.05
2022-09-05T03:26:24.949Z,15.09
2022-09-05T03:29:40.987Z,15.08
2022-09-05T03:32:45.894Z,15.06
2022-09-05T03:35:50.347Z,15.04
2022-09-05T03:38:51.861Z,15.04
2022-09-05T03:42:16.694Z,15.05
2022-09-05T03:45:36.711Z,15.09
2022-09-05T03:48:44.347Z,15.10
2022-09-05T03:57:04.803Z,15.11
2022-09-05T03:57:27.458Z,15.11
2022-09-05T03:57:42.727Z,15.14
2022-09-05T04:00:30.470Z,15.23
2022-09-05T04:08:06.107Z,15.30
2022-09-05T04:08:15.654Z,15.29
2022-09-05T04:09:51.950Z,15.32
2022-09-05T04:12:36.971Z,15.40
2022-09-05T04:15:31.217Z,15.47
2022-09-05T04:18:17.807Z,15.49
2022-09-05T04:21:02.666Z,15.48
2022-09-05T04:24:00.747Z,15.49
2022-09-05T04:27:04.460Z,15.54
2022-09-05T04:30:27.615Z,15.55
2022-09-05T04:32:54.844Z,15.58
2022-09-05T04:35:41.793Z,15.60
2022-09-05T04:38:18.531Z,15.62
2022-09-05T04:41:05.471Z,15.65
2022-09-05T04:44:02.667Z,15.67
2022-09-05T04:46:51.334Z,15.61
2022-09-05T04:49:30.716Z,15.59
2022-09-05T04:52:31.006Z,15.64
2022-09-05T04:55:15.565Z,15.69
2022-09-05T04:58:09.733Z,15.72
2022-09-05T05:05:59.626Z,15.74
2022-09-05T05:06:10.498Z,15.77
2022-09-05T05:06:45.633Z,15.78
2022-09-05T05:09:29.320Z,15.79
2022-09-05T05:18:00.978Z,15.79
2022-09-05T05:18:09.264Z,15.77
2022-09-05T05:18:37.705Z,15.74
2022-09-05T05:21:06.124Z,15.75
2022-09-05T05:23:43.936Z,15.82
2022-09-05T05:26:33.187Z,15.88
2022-09-05T05:29:29.369Z,15.88
2022-09-05T05:32:03.562Z,15.91
2022-09-05T05:34:46.512Z,15.93
2022-09-05T05:37:41.205Z,15.89
2022-09-05T05:40:29.138Z,15.86
2022-09-05T05:43:26.292Z,15.81
2022-09-05T05:46:02.715Z,15.78
2022-09-05T05:48:42.184Z,15.65
2022-09-05T05:52:01.296Z,15.61
2022-09-05T05:55:24.341Z,15.62
2022-09-05T05:58:17.338Z,15.65
2022-09-05T06:01:03.583Z,15.87
2022-09-05T06:04:06.980Z,16.38
2022-09-05T06:07:02.803Z,16.88
2022-09-05T06:14:54.741Z,17.21
2022-09-05T06:15:02.949Z,17.56
2022-09-05T06:15:44.209Z,17.95
2022-09-05T06:18:49.765Z,18.17
2022-09-05T06:22:08.552Z,18.64
2022-09-05T06:24:27.515Z,18.64
2022-09-05T06:28:01.481Z,18.85
2022-09-05T06:30:23.074Z,19.12
2022-09-05T06:33:28.921Z,19.16
2022-09-05T06:36:33.406Z,18.89
2022-09-05T06:39:32.144Z,18.60
2022-09-05T06:42:42.878Z,18.19
2022-09-05T06:45:34.823Z,17.87
2022-09-05T06:48:30.529Z,17.62
2022-09-05T06:51:14.707Z,17.29
2022-09-05T06:54:32.637Z,17.01
2022-09-05T06:57:31.118Z,16.61
2022-09-05T07:00:22.889Z,16.11
2022-09-05T07:03:18.996Z,15.86
2022-09-05T07:06:25.343Z,15.72
2022-09-05T07:09:23.108Z,15.51
2022-09-05T07:12:20.261Z,15.31
2022-09-05T07:15:09.583Z,15.12
2022-09-05T07:18:19.163Z,15.02
2022-09-05T07:21:26.205Z,14.99
2022-09-05T07:24:53.408Z,14.96
2022-09-05T07:26:53.657Z,14.91
2022-09-05T07:29:38.196Z,14.82
2022-09-05T07:32:11.939Z,14.71
2022-09-05T07:34:46.944Z,14.65
2022-09-05T07:37:24.851Z,14.69
2022-09-05T07:40:11.554Z,14.73
2022-09-05T07:42:46.126Z,14.55
2022-09-05T07:45:29.621Z,14.33
2022-09-05T07:48:35.085Z,14.24
2022-09-05T07:55:12.374Z,14.32
2022-09-05T07:56:51.340Z,14.27
2022-09-05T07:56:56.185Z,14.32
2022-09-05T07:58:52.505Z,14.25
2022-09-05T08:01:26.202Z,14.31
2022-09-05T08:04:05.674Z,14.41
2022-09-05T08:07:11.999Z,14.47
2022-09-05T08:10:00.893Z,14.62
2022-09-05T08:12:01.028Z,14.83
2022-09-05T08:15:10.297Z,15.00
2022-09-05T08:18:32.732Z,15.18
2022-09-05T08:21:40.739Z,15.37
2022-09-05T08:24:30.509Z,15.55
2022-09-05T08:27:22.946Z,15.60
2022-09-05T08:30:24.635Z,15.68
2022-09-05T08:32:52.985Z,15.81
2022-09-05T08:35:44.410Z,16.02
2022-09-05T08:38:19.049Z,16.48
2022-09-05T08:40:57.214Z,17.31
2022-09-05T08:46:35.435Z,18.17
2022-09-05T08:46:43.267Z,18.96
2022-09-05T08:49:32.276Z,19.81
2022-09-05T08:52:00.822Z,20.47
2022-09-05T08:55:04.371Z,21.06
2022-09-05T08:57:53.806Z,21.48
2022-09-05T09:00:31.394Z,21.91
2022-09-05T09:03:32.134Z,22.11
2022-09-05T09:06:19.548Z,22.16
2022-09-05T09:09:18.163Z,21.87
2022-09-05T09:12:19.242Z,21.77
2022-09-05T09:15:15.067Z,21.98
2022-09-05T09:18:10.749Z,22.38
2022-09-05T09:21:11.872Z,23.01
2022-09-05T09:23:52.392Z,23.55
2022-09-05T09:26:32.612Z,23.99
2022-09-05T09:29:13.782Z,24.06
2022-09-05T09:32:09.597Z,24.24
2022-09-05T09:34:58.385Z,24.53
2022-09-05T09:38:05.343Z,24.69
2022-09-05T09:41:01.128Z,24.98
2022-09-05T09:43:52.601Z,25.16
2022-09-05T09:46:44.609Z,25.36
2022-09-05T09:49:45.179Z,25.28
2022-09-05T09:52:56.658Z,24.93
2022-09-05T09:56:10.475Z,24.58
2022-09-05T09:58:54.610Z,24.39
2022-09-05T10:02:26.755Z,24.39
2022-09-05T10:10:34.568Z,24.16
2022-09-05T10:10:55.126Z,23.74
2022-09-05T10:11:37.662Z,23.33
2022-09-05T10:14:07.416Z,22.75
2022-09-05T10:17:08.298Z,22.11
2022-09-05T10:20:10.875Z,21.36
2022-09-05T10:23:28.800Z,20.53
2022-09-05T10:26:41.135Z,19.63
2022-09-05T10:29:37.629Z,19.09
2022-09-05T10:35:04.765Z,19.04
2022-09-05T10:35:13.965Z,19.50
2022-09-05T10:37:51.390Z,19.75
2022-09-05T10:40:25.825Z,19.75
2022-09-05T10:43:15.106Z,19.65
2022-09-05T10:46:01.767Z,19.75
2022-09-05T10:48:57.299Z,20.22
2022-09-05T10:51:38.018Z,20.85
2022-09-05T10:54:41.450Z,21.44
2022-09-05T10:57:40.196Z,21.92
2022-09-05T11:02:20.276Z,22.42
2022-09-05T11:03:23.668Z,22.96
2022-09-05T11:06:09.156Z,23.11
2022-09-05T11:08:56.380Z,23.24
2022-09-05T11:11:37.431Z,23.51
2022-09-05T11:14:39.595Z,23.65
2022-09-05T11:17:30.915Z,23.41
2022-09-05T11:20:35.420Z,23.25
2022-09-05T11:23:05.802Z,23.04
2022-09-05T11:25:41.360Z,23.00
2022-09-05T11:28:57.462Z,23.32
2022-09-05T11:31:20.635Z,23.55
2022-09-05T11:39:38.083Z,23.84
2022-09-05T11:39:51.796Z,23.83
2022-09-05T11:40:30.054Z,23.89
2022-09-05T11:42:50.238Z,24.02
2022-09-05T11:46:02.171Z,24.03
2022-09-05T11:48:55.501Z,23.65
2022-09-05T11:51:38.626Z,23.12
2022-09-05T11:54:26.884Z,22.97
2022-09-05T11:57:39.488Z,22.97
2022-09-05T12:00:35.777Z,23.25
2022-09-05T12:03:58.990Z,23.53
2022-09-05T12:06:31.263Z,23.56
2022-09-05T12:09:29.857Z,23.51
2022-09-05T12:12:41.685Z,23.39
2022-09-05T12:15:33.540Z,23.33
2022-09-05T12:18:31.081Z,23.31
2022-09-05T12:21:38.176Z,22.80
2022-09-05T12:25:16.418Z,22.80
2022-09-05T12:27:35.776Z,22.62
2022-09-05T12:29:51.192Z,22.62
2022-09-05T12:33:58.432Z,22.65
2022-09-05T12:40:55.203Z,22.10
2022-09-05T12:41:35.733Z,21.81
2022-09-05T12:44:36.298Z,21.81
2022-09-05T12:46:24.301Z,21.61
2022-09-05T12:49:11.405Z,21.35
2022-09-05T12:51:48.693Z,21.20
2022-09-05T12:54:34.768Z,21.12
2022-09-05T13:00:26.305Z,20.99
2022-09-05T13:03:02.089Z,20.81
2022-09-05T13:03:29.118Z,20.66
2022-09-05T13:05:55.951Z,20.49
2022-09-05T13:08:36.627Z,20.33
2022-09-05T13:14:52.375Z,20.13
2022-09-05T13:14:58.315Z,19.94
2022-09-05T13:16:30.908Z,19.88
2022-09-05T13:19:36.899Z,19.87
2022-09-05T13:22:11.392Z,19.82
2022-09-05T13:24:46.024Z,19.82
2022-09-05T13:27:29.824Z,19.83
2022-09-05T13:37:55.196Z,19.79
2022-09-05T13:38:01.425Z,19.79
2022-09-05T13:38:11.852Z,19.79
2022-09-05T13:38:47.507Z,19.80
2022-09-05T13:40:59.854Z,19.74
2022-09-05T13:43:38.565Z,19.76
2022-09-05T13:46:21.095Z,19.84
2022-09-05T13:51:43.391Z,19.83
2022-09-05T13:54:36.745Z,19.77
2022-09-05T13:57:32.239Z,19.72
2022-09-05T14:00:28.356Z,19.70
2022-09-05T14:03:31.015Z,19.67
2022-09-05T14:06:47.007Z,19.66
2022-09-05T14:09:45.871Z,19.70
2022-09-05T14:12:43.323Z,19.71
2022-09-05T14:15:52.362Z,19.74
2022-09-05T14:18:34.046Z,19.83
2022-09-05T14:21:20.065Z,19.89
2022-09-05T14:24:06.314Z,19.81
2022-09-05T14:27:00.830Z,19.61
2022-09-05T14:29:42.007Z,19.33
2022-09-05T14:37:41.898Z,19.06
2022-09-05T14:37:44.562Z,19.16
2022-09-05T14:38:19.354Z,18.90
2022-09-05T14:41:48.782Z,18.81
2022-09-05T14:44:32.194Z,18.78
2022-09-05T14:47:32.324Z,18.73
2022-09-05T14:50:06.525Z,18.79
2022-09-05T14:52:43.283Z,18.89
2022-09-05T15:02:42.723Z,19.03
2022-09-05T15:02:42.986Z,19.06
2022-09-05T15:03:04.560Z,18.98
2022-09-05T15:05:45.045Z,18.87
2022-09-05T15:11:24.332Z,18.79
2022-09-05T15:12:16.664Z,18.68
2022-09-05T15:13:47.209Z,18.62
2022-09-05T15:16:22.007Z,18.63
2022-09-05T15:18:56.527Z,18.64
2022-09-05T15:21:35.148Z,18.59
2022-09-05T15:24:24.625Z,18.51
2022-09-05T15:27:00.718Z,18.46
2022-09-05T15:29:35.560Z,18.44
2022-09-05T15:32:23.803Z,18.38
2022-09-05T15:35:00.337Z,18.35
2022-09-05T15:37:43.503Z,18.27
2022-09-05T15:40:23.833Z,18.19
2022-09-05T15:43:02.234Z,18.07
2022-09-05T15:45:36.678Z,18.01
2022-09-05T15:48:26.077Z,17.97
2022-09-05T15:51:03.475Z,17.95
2022-09-05T15:53:39.956Z,17.94
2022-09-05T15:56:20.059Z,17.93
2022-09-05T15:58:57.063Z,17.90
2022-09-05T16:01:59.507Z,17.88
2022-09-05T16:08:17.048Z,17.82
2022-09-05T16:10:28.466Z,17.70
2022-09-05T16:10:50.978Z,17.63
2022-09-05T16:12:19.355Z,17.58
2022-09-05T16:16:40.423Z,17.55
2022-09-05T16:23:17.071Z,17.47
2022-09-05T16:23:24.935Z,17.40
2022-09-05T16:23:39.574Z,17.36
2022-09-05T16:26:04.181Z,17.37
2022-09-05T16:28:49.252Z,17.35
2022-09-05T16:31:43.868Z,17.31
2022-09-05T16:34:39.955Z,17.27
2022-09-05T16:37:26.775Z,17.20
2022-09-05T16:40:29.574Z,17.18
2022-09-05T16:43:28.929Z,17.15
2022-09-05T16:46:33.821Z,17.11
2022-09-05T16:49:43.339Z,17.06
2022-09-05T16:52:17.207Z,17.02
2022-09-05T16:54:53.304Z,16.95
2022-09-05T16:57:36.641Z,16.92
2022-09-05T17:00:31.492Z,16.90
2022-09-05T17:03:40.905Z,16.87
2022-09-05T17:06:53.268Z,16.79
2022-09-05T17:09:30.513Z,16.75
2022-09-05T17:12:05.908Z,16.71
2022-09-05T17:14:44.191Z,16.69
2022-09-05T17:18:19.063Z,16.65
2022-09-05T17:20:06.980Z,16.60
2022-09-05T17:29:17.192Z,16.55
2022-09-05T17:29:25.567Z,16.55
2022-09-05T17:29:47.363Z,16.56
2022-09-05T17:31:51.744Z,16.54
2022-09-05T17:33:45.248Z,16.48
2022-09-05T17:36:51.163Z,16.43
2022-09-05T17:39:44.947Z,16.37
2022-09-05T17:42:43.855Z,16.31
2022-09-05T17:45:30.749Z,16.28
2022-09-05T17:48:03.899Z,16.25
2022-09-05T17:51:05.641Z,16.21
2022-09-05T17:54:04.707Z,16.17
2022-09-05T17:56:46.911Z,16.12
2022-09-05T17:59:25.293Z,16.07
2022-09-05T18:02:10.742Z,16.01
2022-09-05T18:04:52.568Z,15.96
2022-09-05T18:07:33.412Z,15.90
2022-09-05T18:10:15.029Z,15.85
2022-09-05T18:13:12.562Z,15.83
2022-09-05T18:15:35.742Z,15.83
2022-09-05T18:18:16.902Z,15.80
2022-09-05T18:20:55.784Z,15.75
2022-09-05T18:23:46.687Z,15.73
2022-09-05T18:26:25.328Z,15.71
2022-09-05T18:29:57.878Z,15.70
2022-09-05T18:32:05.890Z,15.70
2022-09-05T18:34:43.426Z,15.70
2022-09-05T18:37:41.618Z,15.70
2022-09-05T18:40:39.597Z,15.70
2022-09-05T18:43:42.353Z,15.70
2022-09-05T18:46:33.791Z,15.72
2022-09-05T18:50:22.064Z,15.70
2022-09-05T18:52:23.695Z,15.67
2022-09-05T18:56:09.629Z,15.62
2022-09-05T18:57:38.394Z,15.60
2022-09-05T19:00:15.223Z,15.58
2022-09-05T19:02:58.976Z,15.55
2022-09-05T19:06:34.866Z,15.51
2022-09-05T19:08:40.884Z,15.45
2022-09-05T19:11:27.705Z,15.41
2022-09-05T19:14:08.101Z,15.40
2022-09-05T19:16:44.067Z,15.41
2022-09-05T19:19:24.428Z,15.39
2022-09-05T19:22:39.602Z,15.39
2022-09-05T19:24:45.594Z,15.38
2022-09-05T19:28:02.796Z,15.36
2022-09-05T19:36:46.395Z,15.35
2022-09-05T19:36:50.206Z,15.33
2022-09-05T19:37:15.103Z,15.28
2022-09-05T19:37:42.637Z,15.27
2022-09-05T19:43:01.215Z,15.26
2022-09-05T19:47:31.387Z,15.29
2022-09-05T19:47:42.047Z,15.29
2022-09-05T19:48:29.009Z,15.30
2022-09-05T19:51:17.155Z,15.31
2022-09-05T19:54:03.932Z,15.28
2022-09-05T19:56:30.288Z,15.26
2022-09-05T19:59:19.573Z,15.27
2022-09-05T20:01:53.425Z,15.23
2022-09-05T20:04:27.835Z,15.18
2022-09-05T20:07:01.603Z,15.11
2022-09-05T20:09:35.545Z,15.06
2022-09-05T20:12:09.926Z,15.01
2022-09-05T20:14:43.182Z,14.94
2022-09-05T20:17:31.648Z,14.88
2022-09-05T20:20:30.689Z,14.83
2022-09-05T20:23:06.444Z,14.81
2022-09-05T20:25:48.122Z,14.75
2022-09-05T20:28:29.055Z,14.72
2022-09-05T20:31:08.751Z,14.68
2022-09-05T20:34:32.231Z,14.66
2022-09-05T20:43:11.040Z,14.62
2022-09-05T20:43:14.981Z,14.54
2022-09-05T20:43:22.629Z,14.54
2022-09-05T20:45:03.060Z,14.53
2022-09-05T20:54:08.016Z,14.51
2022-09-05T20:54:16.977Z,14.41
2022-09-05T20:54:27.553Z,14.48
2022-09-05T20:55:42.331Z,14.32
2022-09-05T20:58:31.137Z,14.22
2022-09-05T21:01:21.947Z,14.16
2022-09-05T21:04:03.252Z,14.12
2022-09-05T21:06:37.520Z,14.08
2022-09-05T21:09:25.457Z,14.04
2022-09-05T21:11:59.171Z,14.00
2022-09-05T21:14:33.353Z,13.94
2022-09-05T21:17:14.977Z,13.89
2022-09-05T21:19:41.952Z,13.83
2022-09-05T21:22:24.878Z,13.77
2022-09-05T21:25:17.837Z,13.71
2022-09-05T21:28:10.129Z,13.65
2022-09-05T21:30:46.689Z,13.59
2022-09-05T21:33:29.448Z,13.54
2022-09-05T21:36:02.761Z,13.49
2022-09-05T21:38:43.761Z,13.42
2022-09-05T21:41:17.516Z,13.42
2022-09-05T21:47:33.786Z,13.40
2022-09-05T21:47:40.905Z,13.35
2022-09-05T21:49:10.418Z,13.29
2022-09-05T21:51:48.188Z,13.25
2022-09-05T21:59:13.735Z,13.21
2022-09-05T21:59:30.075Z,13.15
2022-09-05T21:59:45.310Z,13.10
2022-09-05T22:02:11.679Z,13.07
2022-09-05T22:04:44.700Z,13.02
2022-09-05T22:07:27.944Z,12.96
2022-09-05T22:10:06.228Z,12.92
2022-09-05T22:12:41.960Z,12.86
2022-09-05T22:15:27.282Z,12.78
2022-09-05T22:17:50.072Z,12.74
2022-09-05T22:20:24.068Z,12.68
2022-09-05T22:22:57.143Z,12.64
2022-09-05T22:25:33.717Z,12.62
2022-09-05T22:28:19.940Z,12.60
2022-09-05T22:30:53.185Z,12.58
2022-09-05T22:33:26.473Z,12.55
2022-09-05T22:35:59.646Z,12.51
2022-09-05T22:38:34.731Z,12.48
2022-09-05T22:41:09.000Z,12.45
2022-09-05T22:43:43.676Z,12.43
2022-09-05T22:46:17.930Z,12.39
2022-09-05T22:48:51.083Z,12.38
2022-09-05T22:51:24.279Z,12.37
2022-09-05T22:53:58.036Z,12.32
2022-09-05T22:56:38.513Z,12.28
2022-09-05T22:59:13.065Z,12.25
2022-09-05T23:01:46.717Z,12.22
2022-09-05T23:04:20.120Z,12.19
2022-09-05T23:06:53.358Z,12.19
2022-09-05T23:09:45.924Z,12.18
2022-09-05T23:12:20.422Z,12.15
2022-09-05T23:14:53.642Z,12.10
2022-09-05T23:17:26.821Z,12.06
2022-09-05T23:19:59.855Z,12.04
2022-09-05T23:22:33.140Z,11.99
2022-09-05T23:25:07.954Z,11.93
2022-09-05T23:27:42.622Z,11.89
2022-09-05T23:30:16.830Z,11.87
2022-09-05T23:32:52.120Z,11.86
2022-09-05T23:35:25.217Z,11.82
2022-09-05T23:37:58.664Z,11.75
2022-09-05T23:40:32.797Z,11.69
2022-09-05T23:43:06.225Z,11.63
2022-09-05T23:45:40.444Z,11.62
2022-09-05T23:48:13.611Z,11.62
2022-09-05T23:50:46.734Z,11.62
2022-09-05T23:53:20.217Z,11.59
2022-09-05T23:55:53.313Z,11.60
2022-09-05T23:58:29.824Z,11.59
